Time;durP1;ratioP1;P1;durP2;ratioP2;P2;SDS_P1;SDS_P2;PMS_P1;PMS_P2;Temp;Humidity;BMP_temperature;BMP_pressure;BME280_temperature;BME280_humidity;BME280_pressure;Samples;Min_cycle;Max_cycle;Signal;HPM_P1;HPM_P2
2024/04/18 00:00:55;;;;;;;8.20;2.78;;;5.90;99.90;;;;;;5454369;26;20395;-89
2024/04/18 00:03:21;;;;;;;2.75;1.92;;;5.90;99.90;;;;;;5454412;26;20319;-89
2024/04/18 00:05:46;;;;;;;3.72;2.20;;;6.00;99.90;;;;;;5453951;26;20412;-89
2024/04/18 00:08:12;;;;;;;2.10;1.80;;;6.00;99.90;;;;;;5454515;26;20006;-89
2024/04/18 00:10:38;;;;;;;2.85;2.10;;;6.10;99.90;;;;;;5454419;26;19999;-89
2024/04/18 00:13:03;;;;;;;1.92;1.63;;;6.10;99.90;;;;;;5454039;26;20067;-89
2024/04/18 00:15:29;;;;;;;2.58;2.03;;;6.10;99.90;;;;;;5454472;26;19995;-90
2024/04/18 00:17:55;;;;;;;1.60;1.50;;;6.10;99.90;;;;;;5454358;26;20007;-89
2024/04/18 00:20:21;;;;;;;2.78;1.80;;;6.20;99.90;;;;;;5453811;26;20006;-89
2024/04/18 00:22:46;;;;;;;1.70;1.60;;;6.40;99.90;;;;;;5454006;26;20338;-89
2024/04/18 00:25:12;;;;;;;3.60;1.90;;;6.20;99.90;;;;;;5453988;26;20007;-88
2024/04/18 00:27:37;;;;;;;1.88;1.70;;;6.10;99.90;;;;;;5453149;26;20319;-88
2024/04/18 00:30:03;;;;;;;3.72;1.60;;;6.10;99.90;;;;;;5453892;26;20075;-89
2024/04/18 00:32:29;;;;;;;2.22;2.03;;;6.10;99.90;;;;;;5453402;26;19998;-88
2024/04/18 00:34:54;;;;;;;2.38;1.80;;;6.10;99.90;;;;;;5453801;26;20023;-88
2024/04/18 00:37:20;;;;;;;2.00;1.90;;;6.10;99.90;;;;;;5453808;26;20396;-87
2024/04/18 00:39:47;;;;;;;4.88;2.67;;;6.10;99.90;;;;;;5457821;26;20409;-88
2024/04/18 00:42:12;;;;;;;2.20;2.00;;;6.10;99.90;;;;;;5457527;26;20012;-88
2024/04/18 00:44:38;;;;;;;3.28;2.38;;;6.10;99.90;;;;;;5476862;26;20007;-88
2024/04/18 00:47:04;;;;;;;3.97;2.60;;;6.10;99.90;;;;;;5475866;26;19991;-88
2024/04/18 00:49:29;;;;;;;2.88;2.50;;;6.10;99.90;;;;;;5454122;26;19995;-89
2024/04/18 00:51:56;;;;;;;2.70;2.22;;;6.10;99.90;;;;;;5453854;26;20360;-87
2024/04/18 00:54:22;;;;;;;3.15;2.28;;;6.20;99.90;;;;;;5458455;26;20002;-88
2024/04/18 00:56:47;;;;;;;4.07;2.75;;;6.20;99.90;;;;;;5470061;26;19995;-88
2024/04/18 00:59:15;;;;;;;2.97;2.78;;;6.20;99.90;;;;;;5458075;26;19998;-89
2024/04/18 01:01:47;;;;;;;2.72;2.53;;;6.20;99.90;;;;;;5456401;26;20014;-89
2024/04/18 01:04:13;;;;;;;4.72;2.53;;;6.20;99.90;;;;;;5456836;26;20010;-89
2024/04/18 01:06:40;;;;;;;3.95;2.60;;;6.20;99.90;;;;;;5456753;26;20003;-89
2024/04/18 01:09:06;;;;;;;3.30;3.00;;;6.20;99.90;;;;;;5456364;26;19995;-89
2024/04/18 01:11:32;;;;;;;3.45;2.95;;;6.20;99.90;;;;;;5456732;26;20021;-88
2024/04/18 01:13:57;;;;;;;3.72;2.97;;;6.20;99.90;;;;;;5456826;26;20031;-89
2024/04/18 01:16:23;;;;;;;3.33;3.03;;;6.20;99.90;;;;;;5455770;26;20002;-88
2024/04/18 01:18:49;;;;;;;5.82;2.92;;;6.20;99.90;;;;;;5456739;26;19995;-88
2024/04/18 01:21:15;;;;;;;5.65;2.97;;;6.20;99.90;;;;;;5456902;26;20011;-89
2024/04/18 01:23:40;;;;;;;3.15;2.67;;;6.10;99.90;;;;;;5455893;26;19999;-89
2024/04/18 01:26:12;;;;;;;3.90;3.50;;;6.10;99.90;;;;;;5456495;26;20014;-89
2024/04/18 01:28:44;;;;;;;4.30;3.35;;;6.10;99.90;;;;;;5456370;26;20011;-88
2024/04/18 01:31:09;;;;;;;3.70;2.85;;;6.10;99.90;;;;;;5456503;26;20075;-88
2024/04/18 01:33:35;;;;;;;4.85;4.35;;;6.10;99.90;;;;;;5456592;26;19999;-90
2024/04/18 01:36:00;;;;;;;4.25;3.60;;;6.20;99.90;;;;;;5455857;26;19995;-87
2024/04/18 01:38:26;;;;;;;4.75;3.75;;;6.10;99.90;;;;;;5456402;26;20075;-89
2024/04/18 01:40:52;;;;;;;5.85;3.53;;;6.10;99.90;;;;;;5456466;26;20321;-89
2024/04/18 01:43:18;;;;;;;5.35;4.10;;;6.10;99.90;;;;;;5456285;26;20078;-89
2024/04/18 01:45:43;;;;;;;4.80;4.32;;;6.10;99.90;;;;;;5457883;26;20002;-88
2024/04/18 01:48:09;;;;;;;6.28;4.13;;;6.00;99.90;;;;;;5457484;26;20017;-88
2024/04/18 01:50:34;;;;;;;6.32;4.60;;;6.00;99.90;;;;;;5456919;26;20441;-90
2024/04/18 01:53:00;;;;;;;5.43;4.70;;;6.00;99.90;;;;;;5457402;26;20410;-89
2024/04/18 01:55:25;;;;;;;5.45;4.15;;;6.00;99.90;;;;;;5457134;26;20006;-89
2024/04/18 01:57:51;;;;;;;6.95;4.53;;;5.90;99.90;;;;;;5456603;26;20009;-88
2024/04/18 02:00:16;;;;;;;7.03;5.18;;;5.90;99.90;;;;;;5456865;26;20074;-88
2024/04/18 02:02:42;;;;;;;8.75;4.65;;;5.90;99.90;;;;;;5457451;26;20075;-88
2024/04/18 02:05:08;;;;;;;7.90;5.85;;;5.80;99.90;;;;;;5456408;26;19995;-88
2024/04/18 02:07:33;;;;;;;6.53;4.57;;;5.80;99.90;;;;;;5455272;26;20026;-88
2024/04/18 02:09:59;;;;;;;5.93;5.32;;;5.80;99.90;;;;;;5456389;26;20010;-89
2024/04/18 02:12:24;;;;;;;7.07;5.13;;;5.80;99.90;;;;;;5458191;26;20013;-89
2024/04/18 02:14:50;;;;;;;5.85;5.35;;;5.80;99.90;;;;;;5473221;26;20000;-88
2024/04/18 02:17:15;;;;;;;5.90;5.40;;;5.80;99.90;;;;;;5461046;26;20002;-88
2024/04/18 02:19:41;;;;;;;6.43;5.72;;;5.80;99.90;;;;;;5457152;26;19999;-89
2024/04/18 02:22:06;;;;;;;6.03;5.43;;;5.80;99.90;;;;;;5473215;26;19991;-87
2024/04/18 02:25:03;;;;;;;7.20;6.50;;;5.80;99.90;;;;;;5475747;26;20023;-89
2024/04/18 02:27:29;;;;;;;8.68;6.07;;;5.80;99.90;;;;;;5460677;26;20013;-88
2024/04/18 02:29:54;;;;;;;6.60;5.55;;;5.70;99.90;;;;;;5456982;26;20006;-88
2024/04/18 02:32:20;;;;;;;6.38;5.78;;;5.70;99.90;;;;;;5454848;26;20046;-88
2024/04/18 02:34:45;;;;;;;7.05;5.85;;;5.70;99.90;;;;;;5455337;26;20014;-89
2024/04/18 02:37:11;;;;;;;7.05;5.78;;;5.70;99.90;;;;;;5455763;26;20071;-89
2024/04/18 02:39:36;;;;;;;7.88;5.72;;;5.60;99.90;;;;;;5454543;26;20007;-89
2024/04/18 02:42:03;;;;;;;9.07;6.20;;;5.70;99.90;;;;;;5455432;26;19998;-90
2024/04/18 02:44:29;;;;;;;8.45;7.05;;;5.70;99.90;;;;;;5455579;26;20014;-88
2024/04/18 02:46:55;;;;;;;8.35;6.95;;;5.60;99.90;;;;;;5454825;26;20018;-87
2024/04/18 02:49:21;;;;;;;9.20;6.72;;;5.60;99.90;;;;;;5455465;26;19994;-89
2024/04/18 02:51:47;;;;;;;7.35;6.60;;;5.60;99.90;;;;;;5455512;26;20006;-89
2024/04/18 02:54:13;;;;;;;8.25;7.28;;;5.60;99.90;;;;;;5456080;26;20006;-87
2024/04/18 02:56:38;;;;;;;7.95;7.15;;;5.60;99.90;;;;;;5457577;26;20338;-89
2024/04/18 02:59:04;;;;;;;7.72;6.93;;;5.60;99.90;;;;;;5458255;26;19999;-88
2024/04/18 03:01:29;;;;;;;7.85;7.05;;;5.60;99.90;;;;;;5457409;26;20422;-89
2024/04/18 03:03:55;;;;;;;7.10;6.50;;;5.70;99.90;;;;;;5456960;26;20458;-89
2024/04/18 03:06:20;;;;;;;7.22;6.63;;;5.60;99.90;;;;;;5459781;26;20442;-90
2024/04/18 03:08:46;;;;;;;6.90;6.25;;;5.70;99.90;;;;;;5459450;26;19999;-89
2024/04/18 03:11:11;;;;;;;9.48;6.25;;;5.60;99.90;;;;;;5459846;26;20084;-89
2024/04/18 03:13:38;;;;;;;7.45;6.82;;;5.50;99.90;;;;;;5460773;26;19998;-87
2024/04/18 03:16:03;;;;;;;9.13;5.85;;;5.60;99.90;;;;;;5455549;26;19998;-89
2024/04/18 03:18:29;;;;;;;6.38;5.78;;;5.60;99.90;;;;;;5454401;26;20005;-88
2024/04/18 03:20:55;;;;;;;5.30;4.80;;;5.60;99.90;;;;;;5455380;26;19999;-88
2024/04/18 03:23:20;;;;;;;5.47;4.97;;;5.60;99.90;;;;;;5454847;26;20010;-89
2024/04/18 03:25:47;;;;;;;4.45;4.05;;;5.60;99.90;;;;;;5455169;26;20014;-89
2024/04/18 03:28:14;;;;;;;6.43;4.70;;;5.50;99.90;;;;;;5455178;26;19999;-90
2024/04/18 03:30:39;;;;;;;6.32;4.72;;;5.50;99.90;;;;;;5454316;26;19999;-88
2024/04/18 03:33:05;;;;;;;5.68;4.57;;;5.50;99.90;;;;;;5471688;26;20054;-88
2024/04/18 03:35:30;;;;;;;5.10;4.55;;;5.40;99.90;;;;;;5456952;26;19999;-89
2024/04/18 03:37:56;;;;;;;4.85;4.22;;;5.40;99.90;;;;;;5456210;26;19994;-89
2024/04/18 03:40:21;;;;;;;4.68;4.15;;;5.40;99.90;;;;;;5458241;26;20009;-89
2024/04/18 03:42:47;;;;;;;5.53;4.53;;;5.40;99.90;;;;;;5457479;26;19995;-89
2024/04/18 03:45:12;;;;;;;6.68;4.50;;;5.40;99.90;;;;;;5457385;26;19999;-88
2024/04/18 03:47:39;;;;;;;5.13;3.95;;;5.40;99.90;;;;;;5454986;26;19998;-89
2024/04/18 03:50:05;;;;;;;5.15;3.35;;;5.40;99.90;;;;;;5455489;26;20014;-89
2024/04/18 03:52:30;;;;;;;3.90;3.50;;;5.70;99.90;;;;;;5454613;26;20445;-88
2024/04/18 03:54:56;;;;;;;5.10;4.10;;;5.40;99.90;;;;;;5454777;26;20014;-88
2024/04/18 03:57:21;;;;;;;4.38;3.40;;;5.40;99.90;;;;;;5454059;26;19999;-88
2024/04/18 03:59:47;;;;;;;5.93;3.30;;;5.50;99.90;;;;;;5454904;26;20014;-88
2024/04/18 04:02:12;;;;;;;3.53;3.22;;;5.50;99.90;;;;;;5464157;26;19997;-87
2024/04/18 04:04:38;;;;;;;3.40;3.10;;;5.50;99.90;;;;;;5477154;26;19995;-88
2024/04/18 04:07:04;;;;;;;5.82;3.40;;;5.50;99.90;;;;;;5472753;26;20323;-88
2024/04/18 04:09:30;;;;;;;3.17;2.88;;;5.50;99.90;;;;;;5460118;26;20006;-87
2024/04/18 04:12:12;;;;;;;3.65;3.35;;;5.50;99.90;;;;;;5455460;26;20416;-88
2024/04/18 04:14:53;;;;;;;5.35;3.10;;;5.40;99.90;;;;;;5454186;26;20010;-89
2024/04/18 04:17:18;;;;;;;4.32;2.67;;;6.90;99.90;;;;;;5454087;26;20453;-89
2024/04/18 04:19:59;;;;;;;3.95;3.25;;;5.50;99.90;;;;;;5454510;26;20014;-89
2024/04/18 04:22:33;;;;;;;3.13;2.78;;;6.20;99.90;;;;;;5453885;26;20392;-88
2024/04/18 04:24:59;;;;;;;3.22;3.03;;;6.30;99.90;;;;;;5453709;26;19995;-89
2024/04/18 04:27:24;;;;;;;3.15;2.88;;;6.30;99.90;;;;;;5454110;26;20009;-88
2024/04/18 04:29:50;;;;;;;4.13;3.72;;;5.60;99.90;;;;;;5454329;26;20002;-87
2024/04/18 04:32:20;;;;;;;3.85;2.90;;;5.60;99.90;;;;;;5456264;26;20010;-89
2024/04/18 04:34:47;;;;;;;4.13;3.75;;;5.70;99.90;;;;;;5459154;26;19999;-89
2024/04/18 04:37:12;;;;;;;6.32;3.15;;;5.70;99.90;;;;;;5458421;26;20025;-88
2024/04/18 04:39:38;;;;;;;3.85;3.30;;;5.70;99.90;;;;;;5457042;26;20005;-89
2024/04/18 04:42:04;;;;;;;4.88;3.08;;;5.70;99.90;;;;;;5457339;26;19994;-88
2024/04/18 04:44:29;;;;;;;3.88;3.08;;;5.80;99.90;;;;;;5457720;26;19999;-89
2024/04/18 04:46:55;;;;;;;2.97;2.72;;;5.80;99.90;;;;;;5456669;26;20438;-88
2024/04/18 04:49:21;;;;;;;2.97;2.78;;;5.80;99.90;;;;;;5460712;26;20071;-89
2024/04/18 04:51:46;;;;;;;3.60;3.22;;;5.80;99.90;;;;;;5472027;26;20002;-88
2024/04/18 04:54:12;;;;;;;4.15;3.00;;;5.80;99.90;;;;;;5457683;26;19998;-88
2024/04/18 04:56:37;;;;;;;4.05;2.80;;;5.80;99.90;;;;;;5457176;26;20003;-89
2024/04/18 04:59:03;;;;;;;2.90;2.70;;;6.00;99.90;;;;;;5457259;26;20446;-88
2024/04/18 05:01:29;;;;;;;5.03;2.50;;;5.80;99.90;;;;;;5457238;26;19998;-90
2024/04/18 05:03:54;;;;;;;3.60;3.30;;;5.80;99.90;;;;;;5457224;26;20006;-89
2024/04/18 05:06:20;;;;;;;3.58;2.80;;;5.80;99.90;;;;;;5457619;26;20010;-88
2024/04/18 05:08:46;;;;;;;3.13;2.75;;;5.70;99.90;;;;;;5456507;26;19999;-89
2024/04/18 05:11:12;;;;;;;3.33;2.95;;;5.70;99.90;;;;;;5456866;26;20009;-89
2024/04/18 05:13:39;;;;;;;3.15;2.40;;;5.70;99.90;;;;;;5457019;26;20006;-88
2024/04/18 05:16:05;;;;;;;5.15;2.50;;;5.70;99.90;;;;;;5456476;26;20031;-89
2024/04/18 05:18:31;;;;;;;3.50;2.00;;;5.70;99.90;;;;;;5457213;26;20010;-89
2024/04/18 05:20:56;;;;;;;3.95;2.50;;;5.60;99.90;;;;;;5456699;26;20027;-88
2024/04/18 05:23:22;;;;;;;3.03;2.60;;;5.70;99.90;;;;;;5456713;26;20005;-89
2024/04/18 05:25:47;;;;;;;6.53;2.42;;;5.70;99.90;;;;;;5457346;26;20464;-89
2024/04/18 05:28:20;;;;;;;3.28;2.78;;;5.70;99.90;;;;;;5456258;26;20013;-88
2024/04/18 05:31:01;;;;;;;2.78;2.35;;;5.70;99.90;;;;;;5457065;26;20006;-88
2024/04/18 05:33:27;;;;;;;2.70;2.10;;;5.70;99.90;;;;;;5456664;26;19999;-89
2024/04/18 05:35:53;;;;;;;2.72;2.10;;;5.60;99.90;;;;;;5456723;26;20075;-88
2024/04/18 05:38:19;;;;;;;3.92;3.00;;;5.60;99.90;;;;;;5457479;26;20007;-90
2024/04/18 05:40:45;;;;;;;4.28;2.47;;;5.60;99.90;;;;;;5457776;26;19999;-89
2024/04/18 05:43:11;;;;;;;2.55;1.92;;;5.60;99.90;;;;;;5465138;26;20013;-90
2024/04/18 05:45:36;;;;;;;3.20;2.60;;;5.60;99.90;;;;;;5479473;26;19990;-90
2024/04/18 05:48:02;;;;;;;3.03;2.47;;;5.70;99.90;;;;;;5470850;26;20010;-90
2024/04/18 05:50:28;;;;;;;2.80;2.28;;;5.80;99.90;;;;;;5458414;26;19994;-89
2024/04/18 05:52:53;;;;;;;7.40;2.53;;;5.90;99.90;;;;;;5457292;26;20443;-90
2024/04/18 05:55:19;;;;;;;6.72;2.45;;;6.10;99.90;;;;;;5457267;26;20454;-90
2024/04/18 05:57:45;;;;;;;4.22;2.50;;;5.90;99.90;;;;;;5456382;26;20334;-90
2024/04/18 06:00:11;;;;;;;3.92;2.50;;;5.90;99.90;;;;;;5457323;26;20315;-90
2024/04/18 06:02:37;;;;;;;3.97;2.50;;;6.00;99.90;;;;;;5458543;26;19999;-90
2024/04/18 06:05:03;;;;;;;3.28;2.50;;;6.00;99.90;;;;;;5456959;26;20009;-90
2024/04/18 06:07:30;;;;;;;4.72;3.00;;;6.60;99.90;;;;;;5457740;26;19995;-89
2024/04/18 06:09:56;;;;;;;5.93;3.28;;;6.10;99.90;;;;;;5473557;26;20056;-90
2024/04/18 06:12:21;;;;;;;5.88;2.50;;;6.10;99.90;;;;;;5459260;26;19995;-90
2024/04/18 06:14:48;;;;;;;5.88;2.97;;;6.10;99.90;;;;;;5457296;26;20003;-90
2024/04/18 06:17:14;;;;;;;3.75;2.70;;;6.20;99.90;;;;;;5456540;26;19998;-90
2024/04/18 06:19:40;;;;;;;4.38;3.30;;;6.20;99.90;;;;;;5457680;26;20002;-90
2024/04/18 06:22:05;;;;;;;3.58;2.90;;;6.20;99.90;;;;;;5457020;26;19999;-89
2024/04/18 06:24:32;;;;;;;5.03;3.20;;;6.30;99.90;;;;;;5456545;26;20331;-91
2024/04/18 06:26:58;;;;;;;6.18;3.17;;;6.30;99.90;;;;;;5457405;26;19998;-90
2024/04/18 06:29:24;;;;;;;6.13;2.55;;;6.40;99.90;;;;;;5456880;26;20013;-90
2024/04/18 06:31:50;;;;;;;5.15;3.28;;;6.40;99.90;;;;;;5456706;26;19995;-91
2024/04/18 06:34:15;;;;;;;4.05;2.75;;;6.40;99.90;;;;;;5457365;26;19999;-91
2024/04/18 06:36:41;;;;;;;3.55;3.08;;;6.50;99.90;;;;;;5456910;26;20013;-93
2024/04/18 06:39:07;;;;;;;5.38;2.30;;;7.20;99.90;;;;;;5456712;26;20010;-90
2024/04/18 06:41:37;;;;;;;3.30;2.15;;;6.60;99.90;;;;;;5456440;26;20006;-92
2024/04/18 06:44:02;;;;;;;5.75;2.30;;;6.60;99.90;;;;;;5456402;26;20552;-90
2024/04/18 06:46:28;;;;;;;5.78;2.33;;;6.60;99.90;;;;;;5455900;26;20015;-91
2024/04/18 06:48:53;;;;;;;3.30;2.15;;;6.70;99.90;;;;;;5456552;26;20044;-91
2024/04/18 06:51:19;;;;;;;5.00;2.20;;;6.70;99.90;;;;;;5456315;26;20014;-90
2024/04/18 06:53:45;;;;;;;3.10;2.75;;;6.70;99.90;;;;;;5455028;26;19998;-90
2024/04/18 06:56:13;;;;;;;3.15;2.15;;;6.80;99.90;;;;;;5456267;26;20053;-91
2024/04/18 06:58:38;;;;;;;2.97;2.75;;;6.80;99.90;;;;;;5456751;26;19999;-91
2024/04/18 07:01:05;;;;;;;11.65;4.22;;;6.80;99.90;;;;;;5455982;26;20013;-90
2024/04/18 07:03:30;;;;;;;7.63;3.08;;;6.90;99.90;;;;;;5456621;26;20013;-91
2024/04/18 07:05:56;;;;;;;5.93;2.17;;;6.90;99.90;;;;;;5461273;26;20002;-91
2024/04/18 07:08:25;;;;;;;5.85;2.72;;;6.90;99.90;;;;;;5457606;26;20010;-92
2024/04/18 07:10:51;;;;;;;6.93;3.47;;;7.00;99.90;;;;;;5456748;26;20465;-91
2024/04/18 07:13:17;;;;;;;3.85;2.50;;;7.00;99.90;;;;;;5459822;26;19999;-91
2024/04/18 07:15:43;;;;;;;3.53;2.13;;;7.10;99.90;;;;;;5461854;26;20009;-92
2024/04/18 07:18:08;;;;;;;7.40;2.42;;;7.20;99.90;;;;;;5459002;26;20005;-90
2024/04/18 07:20:34;;;;;;;5.00;2.17;;;7.20;99.90;;;;;;5456431;26;20065;-89
2024/04/18 07:22:59;;;;;;;5.50;2.10;;;7.30;99.90;;;;;;5476797;26;19994;-89
2024/04/18 07:25:25;;;;;;;7.00;2.30;;;7.40;99.90;;;;;;5477908;26;19991;-89
2024/04/18 07:27:50;;;;;;;3.22;2.13;;;7.40;99.90;;;;;;5468938;26;20010;-89
2024/04/18 07:30:16;;;;;;;4.25;2.25;;;7.40;99.90;;;;;;5471535;26;19995;-90
2024/04/18 07:32:42;;;;;;;6.32;2.45;;;7.50;99.90;;;;;;5462534;26;19999;-89
2024/04/18 07:35:08;;;;;;;6.18;2.40;;;7.50;99.90;;;;;;5457719;26;19995;-88
2024/04/18 07:37:34;;;;;;;5.22;2.15;;;7.60;99.90;;;;;;5455549;26;20346;-88
2024/04/18 07:40:11;;;;;;;6.75;2.50;;;7.70;99.90;;;;;;5456013;26;20009;-88
2024/04/18 07:42:36;;;;;;;7.13;2.53;;;7.70;99.90;;;;;;5455107;26;20092;-89
2024/04/18 07:45:02;;;;;;;7.53;2.65;;;7.90;99.90;;;;;;5455697;26;20002;-89
2024/04/18 07:47:28;;;;;;;6.45;2.33;;;7.80;99.90;;;;;;5455911;26;19991;-89
2024/04/18 07:49:55;;;;;;;6.60;2.25;;;7.80;99.90;;;;;;5456118;26;20003;-89
2024/04/18 07:52:20;;;;;;;14.88;2.78;;;7.90;99.90;;;;;;5455811;26;19995;-88
2024/04/18 07:54:46;;;;;;;5.00;2.05;;;8.10;99.90;;;;;;5454865;26;20002;-89
2024/04/18 07:57:12;;;;;;;5.40;1.92;;;7.90;99.90;;;;;;5454658;26;19999;-89
2024/04/18 07:59:37;;;;;;;2.20;1.88;;;8.00;99.90;;;;;;5455324;26;20019;-88
2024/04/18 08:02:05;;;;;;;1.92;1.52;;;8.00;99.90;;;;;;5455303;26;19995;-88
2024/04/18 08:04:30;;;;;;;3.88;1.50;;;8.10;99.90;;;;;;5454817;26;20002;-91
2024/04/18 08:06:56;;;;;;;3.17;1.50;;;9.30;99.90;;;;;;5458028;26;20010;-91
2024/04/18 08:09:22;;;;;;;4.82;1.23;;;8.20;99.90;;;;;;5464715;26;20003;-89
2024/04/18 08:11:47;;;;;;;3.20;1.20;;;8.30;99.90;;;;;;5463539;26;20001;-90
2024/04/18 08:14:13;;;;;;;5.55;1.08;;;8.40;99.90;;;;;;5462589;26;20070;-91
2024/04/18 08:16:38;;;;;;;5.38;1.15;;;8.40;99.90;;;;;;5455075;26;19998;-89
2024/04/18 08:19:04;;;;;;;4.30;1.95;;;8.50;99.90;;;;;;5455845;26;19999;-91
2024/04/18 08:21:29;;;;;;;2.45;1.60;;;8.50;99.90;;;;;;5454613;26;20014;-91
2024/04/18 08:23:57;;;;;;;3.78;1.20;;;8.60;99.90;;;;;;5454152;26;20042;-91
2024/04/18 08:26:23;;;;;;;4.78;2.03;;;8.60;99.90;;;;;;5454651;26;20002;-91
2024/04/18 08:28:48;;;;;;;4.15;1.20;;;8.70;99.90;;;;;;5455058;26;20003;-91
2024/04/18 08:31:14;;;;;;;1.30;1.08;;;8.80;99.90;;;;;;5453889;26;20354;-90
2024/04/18 08:33:40;;;;;;;3.10;1.00;;;8.90;99.90;;;;;;5454647;26;20002;-90
2024/04/18 08:36:06;;;;;;;4.32;1.75;;;8.90;99.90;;;;;;5454568;26;20367;-89
2024/04/18 08:38:32;;;;;;;2.20;1.17;;;8.90;99.90;;;;;;5453699;26;20071;-88
2024/04/18 08:41:02;;;;;;;4.35;1.20;;;8.90;99.90;;;;;;5454299;26;19999;-89
2024/04/18 08:43:28;;;;;;;4.22;0.85;;;8.90;99.90;;;;;;5454319;26;19999;-88
2024/04/18 08:45:55;;;;;;;4.30;1.13;;;8.80;99.90;;;;;;5468657;26;19991;-88
2024/04/18 08:48:23;;;;;;;3.30;1.00;;;8.80;99.90;;;;;;5455954;26;20056;-88
2024/04/18 08:50:48;;;;;;;1.67;1.25;;;8.90;99.90;;;;;;5453800;26;20044;-88
2024/04/18 08:53:14;;;;;;;6.32;1.65;;;8.60;99.90;;;;;;5453483;26;19999;-88
2024/04/18 08:55:47;;;;;;;4.95;1.10;;;9.20;99.90;;;;;;5454414;26;20070;-88
2024/04/18 08:58:14;;;;;;;3.55;1.48;;;8.50;99.90;;;;;;5454331;26;20006;-90
2024/04/18 09:00:42;;;;;;;2.05;1.13;;;8.50;99.90;;;;;;5468187;26;20018;-90
2024/04/18 09:03:19;;;;;;;3.10;1.10;;;8.50;99.90;;;;;;5475462;26;20056;-90
2024/04/18 09:05:47;;;;;;;4.05;1.80;;;8.50;99.90;;;;;;5471394;26;20036;-90
2024/04/18 09:08:14;;;;;;;4.43;1.00;;;8.60;99.90;;;;;;5460078;26;19998;-88
2024/04/18 09:10:42;;;;;;;5.15;1.10;;;8.80;99.90;;;;;;5454169;26;20002;-90
2024/04/18 09:13:09;;;;;;;2.92;1.10;;;8.60;99.90;;;;;;5453145;26;19995;-89
2024/04/18 09:15:34;;;;;;;9.57;1.55;;;8.70;99.90;;;;;;5453561;26;20058;-90
2024/04/18 09:18:05;;;;;;;2.08;0.85;;;8.70;99.90;;;;;;5456042;26;20395;-90
2024/04/18 09:20:32;;;;;;;1.90;0.90;;;8.80;99.90;;;;;;5456720;26;20002;-90
2024/04/18 09:22:58;;;;;;;4.68;1.08;;;8.90;99.90;;;;;;5456915;26;20011;-91
2024/04/18 09:25:24;;;;;;;6.55;0.98;;;8.90;99.90;;;;;;5457150;26;19995;-90
2024/04/18 09:27:49;;;;;;;4.72;1.38;;;9.00;99.90;;;;;;5456912;26;20018;-88
2024/04/18 09:30:15;;;;;;;2.65;1.00;;;9.00;99.90;;;;;;5456342;26;20009;-91
2024/04/18 09:32:41;;;;;;;2.63;1.05;;;9.00;99.90;;;;;;5456222;26;19999;-90
2024/04/18 09:35:11;;;;;;;4.60;1.02;;;9.10;99.90;;;;;;5456743;26;19999;-91
2024/04/18 09:37:39;;;;;;;5.35;1.40;;;9.10;99.90;;;;;;5456760;26;20009;-90
2024/04/18 09:40:08;;;;;;;2.28;0.73;;;9.20;99.90;;;;;;5457238;26;20039;-89
2024/04/18 09:42:46;;;;;;;5.15;1.00;;;9.20;99.90;;;;;;5456338;26;19995;-90
2024/04/18 09:45:16;;;;;;;1.63;0.80;;;9.20;99.90;;;;;;5457356;26;20064;-89
2024/04/18 09:47:43;;;;;;;4.53;1.33;;;9.30;99.90;;;;;;5456459;26;20003;-90
2024/04/18 09:50:09;;;;;;;6.85;1.10;;;9.30;99.90;;;;;;5456874;26;20025;-90
2024/04/18 09:52:36;;;;;;;2.17;0.95;;;9.40;99.90;;;;;;5456760;26;20171;-89
2024/04/18 09:55:03;;;;;;;0.93;0.80;;;9.50;99.90;;;;;;5456492;26;20035;-89
2024/04/18 09:57:30;;;;;;;3.60;0.98;;;9.50;99.90;;;;;;5456504;26;19998;-90
2024/04/18 09:59:58;;;;;;;4.85;0.90;;;9.50;99.90;;;;;;5457108;26;20006;-90
2024/04/18 10:02:24;;;;;;;1.67;0.88;;;9.60;99.90;;;;;;5455900;26;19995;-90
2024/04/18 10:04:50;;;;;;;3.83;0.77;;;9.50;99.90;;;;;;5465549;26;20002;-90
2024/04/18 10:07:18;;;;;;;3.83;0.63;;;9.50;99.90;;;;;;5458332;26;20014;-89
2024/04/18 10:09:47;;;;;;;5.60;0.82;;;9.50;99.90;;;;;;5456452;26;20010;-89
2024/04/18 10:12:13;;;;;;;11.02;1.48;;;9.50;99.90;;;;;;5456662;26;20009;-90
2024/04/18 10:14:39;;;;;;;2.13;0.73;;;9.50;99.90;;;;;;5456604;26;20002;-88
2024/04/18 10:17:07;;;;;;;1.48;0.73;;;9.50;99.90;;;;;;5456161;26;19999;-90
2024/04/18 10:19:32;;;;;;;1.23;0.40;;;9.40;99.90;;;;;;5457016;26;20013;-89
2024/04/18 10:21:59;;;;;;;1.30;0.43;;;9.40;99.90;;;;;;5456457;26;19995;-90
2024/04/18 10:24:35;;;;;;;2.15;0.70;;;9.40;99.90;;;;;;5456035;26;20021;-89
2024/04/18 10:27:07;;;;;;;1.95;0.50;;;9.40;99.90;;;;;;5456865;26;20015;-89
2024/04/18 10:29:33;;;;;;;1.38;0.85;;;9.50;99.90;;;;;;5455458;26;20017;-89
2024/04/18 10:31:58;;;;;;;3.55;0.90;;;9.60;99.90;;;;;;5456572;26;19995;-90
2024/04/18 10:34:26;;;;;;;2.28;0.50;;;9.70;99.90;;;;;;5457569;26;19999;-89
2024/04/18 10:36:56;;;;;;;3.75;0.80;;;9.80;99.90;;;;;;5458952;26;20075;-89
2024/04/18 10:39:51;;;;;;;2.35;0.70;;;9.80;99.90;;;;;;5463244;26;20102;-89
2024/04/18 10:42:21;;;;;;;1.50;0.43;;;9.90;99.90;;;;;;5449160;26;20003;-89
2024/04/18 10:44:48;;;;;;;3.08;0.80;;;10.00;99.90;;;;;;5470304;26;19999;-90
2024/04/18 10:47:14;;;;;;;7.32;1.05;;;10.10;99.90;;;;;;5464477;26;20013;-90
2024/04/18 10:49:40;;;;;;;1.25;0.63;;;10.40;99.90;;;;;;5465667;26;20014;-90
2024/04/18 10:52:10;;;;;;;3.53;0.63;;;10.30;99.90;;;;;;5462847;26;19998;-89
2024/04/18 10:54:37;;;;;;;4.88;1.15;;;10.30;99.90;;;;;;5462343;26;20009;-89
2024/04/18 10:57:03;;;;;;;2.92;0.77;;;10.20;99.90;;;;;;5458130;26;20043;-89
2024/04/18 10:59:30;;;;;;;2.67;1.00;;;9.80;99.90;;;;;;5455343;26;19994;-90
2024/04/18 11:02:06;;;;;;;4.53;0.88;;;10.10;99.90;;;;;;5456121;26;20458;-89
2024/04/18 11:04:32;;;;;;;2.42;0.77;;;10.10;99.90;;;;;;5455774;26;20078;-90
2024/04/18 11:06:58;;;;;;;5.78;0.77;;;10.20;99.90;;;;;;5454989;26;19998;-90
2024/04/18 11:09:23;;;;;;;4.15;1.02;;;10.20;99.90;;;;;;5455544;26;20017;-90
2024/04/18 11:11:50;;;;;;;2.40;0.60;;;10.20;99.90;;;;;;5455798;26;20015;-89
2024/04/18 11:14:17;;;;;;;2.30;0.70;;;10.20;99.90;;;;;;5454829;26;20025;-89
2024/04/18 11:16:43;;;;;;;3.13;0.60;;;10.10;99.90;;;;;;5455489;26;20010;-89
2024/04/18 11:19:09;;;;;;;1.65;0.52;;;10.10;99.90;;;;;;5455654;26;20010;-89
2024/04/18 11:21:35;;;;;;;1.63;1.02;;;10.10;99.90;;;;;;5465133;26;20071;-90
2024/04/18 11:24:00;;;;;;;2.08;0.70;;;10.10;99.90;;;;;;5461807;26;20014;-89
2024/04/18 11:26:27;;;;;;;3.75;0.70;;;10.10;99.90;;;;;;5455292;26;19995;-89
2024/04/18 11:28:55;;;;;;;1.60;0.40;;;10.10;99.90;;;;;;5454773;26;20003;-89
2024/04/18 11:31:21;;;;;;;0.68;0.30;;;10.10;99.90;;;;;;5455903;26;20010;-90
2024/04/18 11:33:46;;;;;;;2.00;0.40;;;10.20;99.90;;;;;;5454956;26;20007;-90
2024/04/18 11:36:13;;;;;;;0.77;0.50;;;10.30;99.90;;;;;;5455293;26;19999;-90
2024/04/18 11:38:39;;;;;;;0.55;0.30;;;10.30;99.90;;;;;;5455472;26;20076;-89
2024/04/18 11:41:05;;;;;;;4.97;1.20;;;10.40;99.90;;;;;;5454688;26;20396;-89
2024/04/18 11:43:30;;;;;;;2.13;0.50;;;10.50;99.90;;;;;;5455469;26;20018;-89
2024/04/18 11:45:56;;;;;;;2.38;0.80;;;10.60;99.90;;;;;;5455726;26;20387;-90
2024/04/18 11:48:22;;;;;;;2.95;0.80;;;10.70;99.90;;;;;;5456960;26;20010;-89
2024/04/18 11:50:47;;;;;;;5.85;1.10;;;10.40;99.90;;;;;;5458706;26;20014;-89
2024/04/18 11:53:13;;;;;;;11.20;0.90;;;10.40;99.90;;;;;;5458360;26;20017;-90
2024/04/18 11:55:39;;;;;;;5.00;1.15;;;10.40;99.90;;;;;;5455732;26;20003;-90
2024/04/18 11:58:04;;;;;;;3.60;1.10;;;10.40;99.90;;;;;;5454905;26;19999;-90
2024/04/18 12:00:31;;;;;;;2.53;0.57;;;10.40;99.90;;;;;;5454913;26;19999;-90
2024/04/18 12:02:57;;;;;;;2.65;0.35;;;10.70;99.90;;;;;;5454736;26;20018;-89
2024/04/18 12:05:23;;;;;;;2.40;0.70;;;11.30;99.90;;;;;;5455708;26;19999;-88
2024/04/18 12:07:48;;;;;;;0.45;0.45;;;10.70;99.90;;;;;;5454974;26;20002;-88
2024/04/18 12:10:14;;;;;;;4.57;0.70;;;10.70;99.90;;;;;;5454472;26;20010;-90
2024/04/18 12:12:40;;;;;;;1.15;0.50;;;10.20;99.90;;;;;;5455155;26;20400;-87
2024/04/18 12:15:06;;;;;;;2.22;0.98;;;10.60;99.90;;;;;;5455197;26;19999;-90
2024/04/18 12:17:31;;;;;;;2.65;0.90;;;10.50;99.90;;;;;;5457947;26;20003;-90
2024/04/18 12:19:57;;;;;;;1.00;0.40;;;10.50;99.90;;;;;;5475601;26;19987;-89
2024/04/18 12:22:25;;;;;;;1.35;0.50;;;10.40;99.90;;;;;;5475714;26;19995;-88
2024/04/18 12:24:51;;;;;;;5.00;1.00;;;10.40;99.90;;;;;;5457455;26;19995;-88
2024/04/18 12:27:16;;;;;;;2.20;0.47;;;10.30;99.90;;;;;;5455240;26;20071;-88
2024/04/18 12:29:46;;;;;;;1.67;0.52;;;10.70;99.90;;;;;;5454644;26;20006;-88
2024/04/18 12:32:12;;;;;;;2.37;0.40;;;10.50;99.90;;;;;;5454011;26;20010;-89
2024/04/18 12:34:44;;;;;;;1.63;0.60;;;10.90;99.90;;;;;;5454484;26;20006;-88
2024/04/18 12:37:09;;;;;;;0.95;0.40;;;10.70;99.90;;;;;;5454061;26;19994;-88
2024/04/18 12:39:35;;;;;;;2.70;0.40;;;10.70;99.90;;;;;;5462172;26;19995;-88
2024/04/18 12:42:01;;;;;;;5.80;0.68;;;10.80;99.90;;;;;;5461737;26;20370;-89
2024/04/18 12:44:27;;;;;;;1.80;0.50;;;10.80;99.90;;;;;;5454296;26;20010;-88
2024/04/18 12:46:52;;;;;;;2.67;0.70;;;10.90;99.90;;;;;;5454025;26;19995;-88
2024/04/18 12:49:18;;;;;;;8.70;0.82;;;11.00;99.90;;;;;;5454062;26;20071;-89
2024/04/18 12:51:43;;;;;;;2.63;0.60;;;11.00;99.90;;;;;;5453943;26;20010;-88